Time;durP1;ratioP1;P1;durP2;ratioP2;P2;SDS_P1;SDS_P2;PMS_P1;PMS_P2;Temp;Humidity;BMP_temperature;BMP_pressure;BME280_temperature;BME280_humidity;BME280_pressure;Samples;Min_cycle;Max_cycle;Signal;HPM_P1;HPM_P2
2023/10/19 00:00:55;;;;;;;9.02;8.18;;;10.30;99.90;;;;;;5018899;28;20207;-73
2023/10/19 00:03:23;;;;;;;8.70;7.90;;;10.30;99.90;;;;;;5020295;28;20204;-73
2023/10/19 00:05:50;;;;;;;8.75;7.95;;;10.30;99.90;;;;;;5018762;28;21598;-72
2023/10/19 00:08:20;;;;;;;8.57;7.80;;;10.30;99.90;;;;;;5025327;28;20226;-73
2023/10/19 00:10:54;;;;;;;8.27;7.47;;;10.40;99.90;;;;;;5023009;28;20283;-73
2023/10/19 00:13:21;;;;;;;7.07;6.50;;;10.40;99.90;;;;;;5021129;28;20219;-73
2023/10/19 00:15:51;;;;;;;7.95;7.25;;;10.40;99.90;;;;;;5021258;28;20208;-73
2023/10/19 00:18:23;;;;;;;6.82;6.22;;;10.50;99.90;;;;;;5020341;28;20704;-74
2023/10/19 00:20:53;;;;;;;7.20;6.60;;;10.50;99.90;;;;;;5016116;28;20218;-74
2023/10/19 00:23:28;;;;;;;6.90;6.30;;;10.50;99.90;;;;;;5020498;28;20199;-74
2023/10/19 00:25:56;;;;;;;9.88;8.95;;;10.50;99.90;;;;;;5018296;28;20959;-73
2023/10/19 00:28:25;;;;;;;8.15;7.45;;;10.50;99.90;;;;;;5016813;28;21710;-73
2023/10/19 00:30:53;;;;;;;9.68;8.77;;;10.40;99.90;;;;;;5019533;28;20207;-73
2023/10/19 00:33:21;;;;;;;9.85;8.95;;;10.40;99.90;;;;;;5019905;28;20227;-73
2023/10/19 00:36:00;;;;;;;9.38;8.48;;;10.40;99.90;;;;;;5020484;28;20200;-73
2023/10/19 00:38:41;;;;;;;8.18;7.43;;;10.40;99.90;;;;;;5019072;28;21183;-74
2023/10/19 00:41:13;;;;;;;9.40;8.50;;;10.40;99.90;;;;;;5026001;28;20221;-72
2023/10/19 00:43:44;;;;;;;9.32;8.43;;;10.40;99.90;;;;;;5024476;28;20204;-73
2023/10/19 00:46:20;;;;;;;9.05;8.20;;;10.40;99.90;;;;;;5024356;28;20298;-72
2023/10/19 00:48:50;;;;;;;9.98;8.98;;;10.50;99.90;;;;;;5023520;28;20215;-73
2023/10/19 00:51:40;;;;;;;9.68;8.77;;;10.50;99.90;;;;;;5021324;28;20293;-73
2023/10/19 00:54:12;;;;;;;8.27;7.57;;;10.50;99.90;;;;;;5021026;28;20703;-73
2023/10/19 00:56:45;;;;;;;7.25;6.65;;;10.50;99.90;;;;;;5018975;28;20196;-73
2023/10/19 00:59:14;;;;;;;7.53;6.82;;;10.50;99.90;;;;;;5019608;28;20770;-73
2023/10/19 01:01:45;;;;;;;7.00;6.32;;;10.60;99.90;;;;;;5029275;28;20709;-74
2023/10/19 01:04:16;;;;;;;7.45;6.75;;;10.60;99.90;;;;;;5028049;28;20319;-74
2023/10/19 01:06:44;;;;;;;6.47;5.85;;;10.60;99.90;;;;;;5021303;28;20288;-71
2023/10/19 01:09:14;;;;;;;6.35;5.85;;;10.60;99.90;;;;;;5024138;28;20208;-73
2023/10/19 01:11:45;;;;;;;6.40;5.80;;;10.60;99.90;;;;;;5026614;28;20347;-74
2023/10/19 01:14:21;;;;;;;7.18;6.55;;;10.60;99.90;;;;;;5022642;28;20192;-73
2023/10/19 01:16:49;;;;;;;6.85;6.25;;;10.60;99.90;;;;;;5027036;28;20203;-74
2023/10/19 01:19:20;;;;;;;6.82;6.22;;;10.60;99.90;;;;;;5007860;28;20203;-73
2023/10/19 01:21:51;;;;;;;6.97;6.35;;;10.60;99.90;;;;;;5030729;28;20199;-74
2023/10/19 01:24:27;;;;;;;7.13;6.50;;;10.60;99.90;;;;;;5027843;28;20212;-73
2023/10/19 01:26:56;;;;;;;7.60;6.90;;;10.60;99.90;;;;;;5024128;28;20203;-74
2023/10/19 01:29:27;;;;;;;8.90;8.10;;;10.60;99.90;;;;;;5025398;28;20204;-74
2023/10/19 01:32:05;;;;;;;9.02;8.23;;;10.60;99.90;;;;;;5028848;28;20385;-74
2023/10/19 01:34:33;;;;;;;7.88;7.18;;;10.60;99.90;;;;;;5025814;28;20420;-73
2023/10/19 01:37:03;;;;;;;8.40;7.60;;;10.60;99.90;;;;;;5030704;28;20859;-74
2023/10/19 01:39:31;;;;;;;8.32;7.63;;;10.60;99.90;;;;;;5023734;28;20274;-73
2023/10/19 01:41:58;;;;;;;9.10;8.20;;;10.60;99.90;;;;;;5025005;28;20199;-73
2023/10/19 01:44:25;;;;;;;10.45;8.15;;;10.60;99.90;;;;;;5019229;28;20193;-73
2023/10/19 01:46:52;;;;;;;8.77;7.95;;;10.60;99.90;;;;;;5031298;28;20206;-74
2023/10/19 01:49:26;;;;;;;8.23;7.53;;;10.60;99.90;;;;;;5030363;28;20728;-73
2023/10/19 01:51:53;;;;;;;7.53;6.82;;;10.60;99.90;;;;;;5032347;28;20276;-73
2023/10/19 01:54:23;;;;;;;8.40;7.70;;;10.60;99.90;;;;;;5028177;28;20202;-73
2023/10/19 01:56:54;;;;;;;8.43;7.72;;;10.60;99.90;;;;;;5023386;28;20195;-72
2023/10/19 01:59:22;;;;;;;7.38;6.72;;;10.60;99.90;;;;;;5017628;28;20195;-73
2023/10/19 02:01:49;;;;;;;8.27;7.47;;;10.60;99.90;;;;;;5021131;28;20283;-73
2023/10/19 02:04:17;;;;;;;7.38;6.70;;;10.60;99.90;;;;;;5020861;28;20196;-73
2023/10/19 02:06:46;;;;;;;7.93;7.20;;;10.60;99.90;;;;;;5021620;28;20200;-74
2023/10/19 02:09:17;;;;;;;7.45;6.75;;;10.60;99.90;;;;;;5026006;28;20231;-74
2023/10/19 02:11:46;;;;;;;6.80;6.20;;;10.60;99.90;;;;;;5019017;28;20204;-73
2023/10/19 02:14:14;;;;;;;6.47;5.90;;;10.60;99.90;;;;;;5019693;28;20688;-73
2023/10/19 02:16:43;;;;;;;6.75;6.05;;;10.60;99.90;;;;;;5025871;28;20291;-72
2023/10/19 02:19:09;;;;;;;6.78;6.18;;;10.70;99.90;;;;;;5022061;28;21114;-73
2023/10/19 02:21:39;;;;;;;7.57;6.93;;;10.70;99.90;;;;;;5021134;28;20635;-72
2023/10/19 02:24:07;;;;;;;7.43;6.78;;;10.70;99.90;;;;;;5022986;28;20199;-73
2023/10/19 02:26:35;;;;;;;7.45;6.75;;;10.70;99.90;;;;;;5026271;28;20262;-73
2023/10/19 02:29:07;;;;;;;7.00;6.40;;;10.60;99.90;;;;;;5020442;28;20707;-73
2023/10/19 02:31:37;;;;;;;8.05;7.35;;;10.60;99.90;;;;;;5029027;28;20282;-73
2023/10/19 02:34:04;;;;;;;8.43;7.63;;;10.60;99.90;;;;;;5031269;28;20676;-73
2023/10/19 02:36:33;;;;;;;7.68;7.05;;;10.60;99.90;;;;;;5032275;28;20200;-73
2023/10/19 02:39:00;;;;;;;9.40;8.48;;;10.60;99.90;;;;;;5030665;28;20232;-73
2023/10/19 02:41:28;;;;;;;9.00;8.20;;;10.60;99.90;;;;;;5024575;28;20196;-73
2023/10/19 02:44:01;;;;;;;8.55;7.75;;;10.50;99.90;;;;;;5030009;28;20287;-72
2023/10/19 02:46:29;;;;;;;10.00;9.02;;;10.50;99.90;;;;;;5029430;28;20748;-73
2023/10/19 02:48:57;;;;;;;10.27;9.27;;;10.50;99.90;;;;;;5029231;28;20214;-73
2023/10/19 02:51:24;;;;;;;12.98;11.65;;;10.50;99.90;;;;;;5030723;28;20210;-73
2023/10/19 02:53:50;;;;;;;11.07;9.98;;;10.50;99.90;;;;;;5030586;28;20219;-73
2023/10/19 02:56:18;;;;;;;10.45;9.50;;;10.40;99.90;;;;;;5031595;28;20243;-73
2023/10/19 02:58:48;;;;;;;9.60;8.70;;;10.40;99.90;;;;;;5029712;28;20219;-73
2023/10/19 03:01:21;;;;;;;8.45;7.65;;;10.40;99.90;;;;;;5034264;28;20286;-73
2023/10/19 03:03:49;;;;;;;7.53;6.82;;;10.50;99.90;;;;;;5022588;28;20952;-72
2023/10/19 03:06:20;;;;;;;9.48;7.70;;;10.50;99.90;;;;;;5028958;28;20207;-73
2023/10/19 03:08:47;;;;;;;9.57;8.68;;;10.50;99.90;;;;;;5030683;28;20219;-72
2023/10/19 03:11:14;;;;;;;8.90;7.97;;;10.50;99.90;;;;;;5028127;28;20314;-73
2023/10/19 03:13:41;;;;;;;8.43;7.63;;;10.50;99.90;;;;;;5029349;28;20227;-73
2023/10/19 03:16:09;;;;;;;7.53;6.82;;;10.50;99.90;;;;;;5026368;28;20214;-73
2023/10/19 03:18:35;;;;;;;7.68;6.97;;;10.50;99.90;;;;;;5027691;28;20310;-72
2023/10/19 03:21:03;;;;;;;6.82;6.22;;;10.60;99.90;;;;;;5021730;28;20230;-72
2023/10/19 03:23:34;;;;;;;7.63;6.93;;;10.50;99.90;;;;;;5023622;28;20218;-73
2023/10/19 03:26:27;;;;;;;6.65;6.05;;;10.60;99.90;;;;;;5031042;28;20219;-71
2023/10/19 03:28:55;;;;;;;8.98;6.90;;;10.60;99.90;;;;;;5027435;28;20230;-72
2023/10/19 03:31:25;;;;;;;7.97;7.18;;;10.60;99.90;;;;;;5026690;28;20207;-73
2023/10/19 03:33:55;;;;;;;7.78;7.07;;;10.60;99.90;;;;;;5026772;28;20215;-72
2023/10/19 03:36:23;;;;;;;8.38;7.57;;;10.60;99.90;;;;;;5026074;28;20203;-73
2023/10/19 03:38:53;;;;;;;8.68;7.57;;;10.50;99.90;;;;;;5023678;28;20303;-72
2023/10/19 03:41:26;;;;;;;8.45;7.75;;;10.50;99.90;;;;;;5025465;28;20859;-73
2023/10/19 03:43:56;;;;;;;7.53;6.82;;;10.50;99.90;;;;;;5025891;28;20261;-73
2023/10/19 03:46:28;;;;;;;6.63;6.03;;;10.50;99.90;;;;;;5024666;28;20204;-73
2023/10/19 03:48:58;;;;;;;8.05;7.30;;;10.50;99.90;;;;;;5025865;28;20219;-73
2023/10/19 03:51:26;;;;;;;7.70;6.90;;;10.60;99.90;;;;;;5026237;28;20204;-72
2023/10/19 03:54:01;;;;;;;8.02;7.32;;;10.60;99.90;;;;;;5028216;28;20213;-72
2023/10/19 03:56:28;;;;;;;7.20;6.50;;;10.60;99.90;;;;;;5024364;28;20288;-73
2023/10/19 03:58:58;;;;;;;7.10;6.40;;;10.60;99.90;;;;;;5024722;28;20247;-72
2023/10/19 04:01:25;;;;;;;8.35;7.65;;;10.60;99.90;;;;;;5024251;28;20210;-73
2023/10/19 04:03:55;;;;;;;8.35;7.18;;;10.70;99.90;;;;;;5030292;28;20207;-73
2023/10/19 04:06:22;;;;;;;7.10;6.60;;;10.70;99.90;;;;;;5026015;28;20208;-73
2023/10/19 04:08:50;;;;;;;7.60;6.90;;;10.70;99.90;;;;;;5034939;28;20226;-73
2023/10/19 04:11:32;;;;;;;8.27;7.53;;;10.60;99.90;;;;;;5024153;28;20203;-73
2023/10/19 04:14:03;;;;;;;8.55;7.80;;;10.70;99.90;;;;;;5023078;28;20736;-73
2023/10/19 04:16:31;;;;;;;9.15;8.27;;;10.60;99.90;;;;;;5026769;28;20210;-72
2023/10/19 04:18:58;;;;;;;9.07;8.20;;;10.60;99.90;;;;;;5026371;28;20997;-72
2023/10/19 04:21:25;;;;;;;8.55;7.75;;;10.60;99.90;;;;;;5018483;28;20200;-74
2023/10/19 04:23:52;;;;;;;8.02;7.32;;;10.60;99.90;;;;;;5025562;28;20282;-74
2023/10/19 04:26:21;;;;;;;8.50;7.78;;;10.60;99.90;;;;;;5020028;28;20203;-73
2023/10/19 04:28:50;;;;;;;8.60;7.80;;;10.60;99.90;;;;;;5026897;28;20303;-74
2023/10/19 04:31:19;;;;;;;7.65;6.95;;;10.60;99.90;;;;;;5022764;28;20644;-73
2023/10/19 04:33:47;;;;;;;8.23;7.53;;;10.60;99.90;;;;;;5024518;28;20212;-73
2023/10/19 04:36:21;;;;;;;8.50;7.75;;;10.60;99.90;;;;;;5029702;28;20688;-74
2023/10/19 04:38:48;;;;;;;8.73;7.93;;;10.50;99.90;;;;;;5027096;28;20277;-72
2023/10/19 04:41:15;;;;;;;7.45;6.68;;;10.60;99.90;;;;;;5028550;28;20200;-72
2023/10/19 04:43:49;;;;;;;7.60;7.00;;;10.60;99.90;;;;;;5031379;28;20242;-73
2023/10/19 04:46:18;;;;;;;8.88;7.95;;;10.50;99.90;;;;;;5023910;28;20198;-72
2023/10/19 04:48:45;;;;;;;8.68;7.93;;;10.50;99.90;;;;;;5027718;28;20731;-73
2023/10/19 04:51:13;;;;;;;8.75;7.88;;;10.60;99.90;;;;;;5027409;28;20196;-74
2023/10/19 04:53:42;;;;;;;8.20;7.50;;;10.60;99.90;;;;;;5020241;28;20216;-73
2023/10/19 04:56:10;;;;;;;8.48;7.70;;;10.60;99.90;;;;;;5025798;28;20207;-72
2023/10/19 04:58:37;;;;;;;8.15;7.43;;;10.60;99.90;;;;;;5022634;28;20311;-74
2023/10/19 05:01:06;;;;;;;7.93;7.22;;;10.60;99.90;;;;;;5023705;28;20283;-73
2023/10/19 05:03:34;;;;;;;7.50;6.70;;;10.60;99.90;;;;;;5029635;28;20204;-73
2023/10/19 05:06:01;;;;;;;8.07;7.38;;;10.60;99.90;;;;;;5020501;28;20207;-73
2023/10/19 05:08:29;;;;;;;7.57;6.88;;;10.60;99.90;;;;;;5020783;28;20786;-71
2023/10/19 05:10:58;;;;;;;8.80;7.97;;;10.60;99.90;;;;;;5023934;28;20195;-72
2023/10/19 05:13:26;;;;;;;8.13;7.43;;;10.60;99.90;;;;;;5019468;28;20265;-72
2023/10/19 05:15:54;;;;;;;8.45;7.72;;;10.60;99.90;;;;;;5022207;28;21618;-73
2023/10/19 05:18:23;;;;;;;8.35;7.57;;;10.60;99.90;;;;;;5021069;28;20228;-74
2023/10/19 05:20:55;;;;;;;8.38;7.57;;;10.60;99.90;;;;;;5020592;28;20218;-73
2023/10/19 05:23:23;;;;;;;8.18;7.45;;;10.50;99.90;;;;;;5021803;28;20292;-73
2023/10/19 05:25:52;;;;;;;7.93;7.25;;;10.60;99.90;;;;;;5016425;28;20211;-74
2023/10/19 05:28:19;;;;;;;8.35;7.63;;;10.60;99.90;;;;;;5023208;28;20222;-74
2023/10/19 05:30:48;;;;;;;10.07;9.07;;;10.60;99.90;;;;;;5022475;28;20202;-73
2023/10/19 05:33:15;;;;;;;9.48;8.48;;;10.60;99.90;;;;;;5013923;28;20216;-72
2023/10/19 05:35:44;;;;;;;9.20;8.40;;;10.60;99.90;;;;;;5025230;28;20245;-73
2023/10/19 05:38:11;;;;;;;8.73;7.93;;;10.60;99.90;;;;;;5029301;28;20281;-72
2023/10/19 05:40:38;;;;;;;9.02;8.13;;;10.60;99.90;;;;;;5021505;28;20195;-72
2023/10/19 05:43:07;;;;;;;8.65;7.85;;;10.60;99.90;;;;;;5029068;28;20253;-72
2023/10/19 05:45:36;;;;;;;10.20;9.02;;;10.50;99.90;;;;;;5026991;28;20234;-73
2023/10/19 05:48:06;;;;;;;9.18;8.40;;;10.50;99.90;;;;;;5021842;28;20306;-74
2023/10/19 05:50:34;;;;;;;8.30;7.60;;;10.50;99.90;;;;;;5019447;28;20289;-75
2023/10/19 05:53:05;;;;;;;8.35;7.65;;;10.60;99.90;;;;;;5025096;28;20208;-73
2023/10/19 05:55:32;;;;;;;8.40;7.70;;;10.60;99.90;;;;;;5022970;28;20215;-74
2023/10/19 05:58:01;;;;;;;8.32;7.60;;;10.60;99.90;;;;;;5024630;28;20217;-73
2023/10/19 06:00:28;;;;;;;7.78;6.88;;;10.60;99.90;;;;;;5024225;28;20260;-74
2023/10/19 06:02:55;;;;;;;7.70;7.00;;;10.60;99.90;;;;;;5026445;28;20253;-74
2023/10/19 06:05:23;;;;;;;7.60;7.00;;;10.70;99.90;;;;;;5014919;28;20208;-74
2023/10/19 06:07:51;;;;;;;8.55;7.72;;;10.70;99.90;;;;;;5022623;28;20231;-73
2023/10/19 06:10:22;;;;;;;9.82;7.88;;;10.70;99.90;;;;;;5018307;28;20258;-72
2023/10/19 06:12:51;;;;;;;8.32;7.63;;;10.70;99.90;;;;;;5022767;28;20702;-74
2023/10/19 06:15:20;;;;;;;8.82;7.97;;;10.70;99.90;;;;;;5029362;28;20859;-74
2023/10/19 06:17:49;;;;;;;8.15;7.38;;;10.70;99.90;;;;;;5030153;28;20214;-73
2023/10/19 06:20:26;;;;;;;8.38;7.68;;;10.70;99.90;;;;;;5025908;28;20287;-73
2023/10/19 06:22:55;;;;;;;8.65;7.95;;;10.80;99.90;;;;;;5023306;28;20210;-73
2023/10/19 06:25:25;;;;;;;8.25;7.50;;;10.70;99.90;;;;;;5025735;28;20195;-74
2023/10/19 06:27:56;;;;;;;8.30;7.60;;;10.80;99.90;;;;;;5026396;28;20226;-72
2023/10/19 06:30:24;;;;;;;7.97;7.20;;;10.80;99.90;;;;;;5020578;28;20282;-72
2023/10/19 06:32:53;;;;;;;8.90;8.10;;;10.80;99.90;;;;;;5023688;28;20232;-73
2023/10/19 06:35:21;;;;;;;7.90;7.22;;;10.80;99.90;;;;;;5025453;28;20199;-74
2023/10/19 06:37:49;;;;;;;8.38;7.57;;;10.90;99.90;;;;;;5027119;28;20359;-73
2023/10/19 06:40:17;;;;;;;7.78;7.07;;;10.90;99.90;;;;;;5018214;28;20936;-73
2023/10/19 06:42:47;;;;;;;7.85;7.13;;;10.90;99.90;;;;;;5022917;28;20664;-73
2023/10/19 06:45:15;;;;;;;7.57;6.93;;;10.90;99.90;;;;;;5038328;28;20967;-74
2023/10/19 06:47:44;;;;;;;7.53;6.88;;;11.00;99.90;;;;;;5021208;28;20267;-74
2023/10/19 06:50:12;;;;;;;8.15;7.35;;;11.00;99.90;;;;;;5016963;28;20203;-73
2023/10/19 06:52:40;;;;;;;7.95;7.25;;;11.00;99.90;;;;;;5023423;28;20196;-74
2023/10/19 06:55:13;;;;;;;6.90;6.30;;;11.00;99.90;;;;;;5024091;28;20595;-72
2023/10/19 06:57:42;;;;;;;8.02;7.32;;;11.00;99.90;;;;;;5017187;28;20242;-72
2023/10/19 07:00:15;;;;;;;6.63;6.13;;;11.00;99.90;;;;;;5018967;28;20411;-73
2023/10/19 07:02:43;;;;;;;7.45;6.85;;;11.10;99.90;;;;;;5017478;28;20208;-73
2023/10/19 07:05:11;;;;;;;7.43;6.72;;;11.10;99.90;;;;;;5020754;28;20214;-73
2023/10/19 07:07:40;;;;;;;7.43;6.75;;;11.10;99.90;;;;;;5020833;28;20215;-72
2023/10/19 07:10:09;;;;;;;7.95;7.25;;;11.10;99.90;;;;;;5018937;28;20211;-73
2023/10/19 07:12:37;;;;;;;7.10;6.50;;;11.10;99.90;;;;;;5023436;28;20557;-74
2023/10/19 07:15:07;;;;;;;8.07;7.32;;;11.10;99.90;;;;;;5019220;28;20216;-72
2023/10/19 07:17:37;;;;;;;7.80;7.10;;;11.10;99.90;;;;;;5019026;28;20637;-73
2023/10/19 07:20:08;;;;;;;7.70;7.00;;;11.20;99.90;;;;;;5017903;28;20347;-73
2023/10/19 07:22:37;;;;;;;7.85;7.15;;;11.20;99.90;;;;;;5024706;28;20728;-73
2023/10/19 07:25:06;;;;;;;9.35;8.45;;;11.20;99.90;;;;;;5022040;28;20242;-73
2023/10/19 07:27:33;;;;;;;9.02;8.13;;;11.20;99.90;;;;;;5019914;28;20258;-73
2023/10/19 07:30:01;;;;;;;8.65;7.85;;;11.20;99.90;;;;;;5021579;28;20229;-74
2023/10/19 07:32:28;;;;;;;9.57;8.77;;;11.10;99.90;;;;;;5021803;28;20619;-74
2023/10/19 07:34:59;;;;;;;9.38;8.57;;;11.10;99.90;;;;;;5023426;28;20218;-74
2023/10/19 07:37:27;;;;;;;9.68;8.77;;;11.20;99.90;;;;;;5018310;28;20245;-74
2023/10/19 07:39:56;;;;;;;9.80;8.82;;;11.20;99.90;;;;;;5016933;28;20203;-73
2023/10/19 07:42:24;;;;;;;9.63;8.75;;;11.20;99.90;;;;;;5017361;28;20200;-73
2023/10/19 07:44:51;;;;;;;9.07;8.20;;;11.20;99.90;;;;;;5025592;28;20198;-73
2023/10/19 07:47:18;;;;;;;8.70;8.00;;;11.20;99.90;;;;;;5022009;28;20277;-74
2023/10/19 07:49:47;;;;;;;9.60;8.70;;;11.20;99.90;;;;;;5026253;28;20257;-74
2023/10/19 07:52:16;;;;;;;9.13;8.32;;;11.20;99.90;;;;;;5025921;28;20261;-74
2023/10/19 07:54:43;;;;;;;9.88;8.85;;;11.30;99.90;;;;;;5021915;28;20225;-74
2023/10/19 07:57:12;;;;;;;9.30;8.38;;;11.30;99.90;;;;;;5022242;28;20766;-73
2023/10/19 07:59:39;;;;;;;7.38;6.75;;;11.40;99.90;;;;;;5026336;28;20203;-73
2023/10/19 08:02:08;;;;;;;7.45;6.78;;;11.60;99.90;;;;;;5023060;28;20211;-73
2023/10/19 08:04:36;;;;;;;6.63;6.03;;;11.80;99.90;;;;;;5025396;28;20231;-74
2023/10/19 08:07:03;;;;;;;6.63;6.13;;;12.10;99.90;;;;;;5021420;28;20208;-73
2023/10/19 08:09:35;;;;;;;7.40;5.72;;;12.20;99.90;;;;;;5020160;28;20691;-74
2023/10/19 08:12:05;;;;;;;7.28;6.57;;;12.40;99.90;;;;;;5022622;28;20940;-75
2023/10/19 08:14:32;;;;;;;8.68;7.75;;;12.50;99.90;;;;;;5020063;28;20223;-75
2023/10/19 08:16:59;;;;;;;10.48;9.48;;;12.50;99.90;;;;;;5019430;28;20771;-75
2023/10/19 08:19:30;;;;;;;11.27;10.10;;;12.40;99.90;;;;;;5016970;28;20262;-72
2023/10/19 08:21:59;;;;;;;10.00;9.13;;;12.30;99.90;;;;;;5025016;28;20208;-74
2023/10/19 08:24:28;;;;;;;9.98;8.98;;;12.20;99.90;;;;;;5020907;28;20201;-74
2023/10/19 08:26:57;;;;;;;11.85;10.75;;;12.10;99.90;;;;;;5021681;28;20211;-75
2023/10/19 08:29:25;;;;;;;10.25;9.25;;;12.10;99.90;;;;;;5019377;28;20258;-75
2023/10/19 08:31:52;;;;;;;9.52;8.63;;;12.00;99.90;;;;;;5024965;28;20205;-75
2023/10/19 08:34:20;;;;;;;9.38;8.57;;;11.90;99.90;;;;;;5022247;28;20219;-75
2023/10/19 08:36:51;;;;;;;10.60;9.15;;;11.90;99.90;;;;;;5022332;28;20833;-75
2023/10/19 08:39:18;;;;;;;11.25;10.25;;;11.90;99.90;;;;;;5019204;28;20286;-75
2023/10/19 08:41:49;;;;;;;12.23;11.10;;;12.00;99.90;;;;;;5025186;28;20221;-75
2023/10/19 08:44:18;;;;;;;11.65;10.57;;;11.90;99.90;;;;;;5021202;28;20199;-74
2023/10/19 08:46:47;;;;;;;11.13;9.95;;;11.90;99.90;;;;;;5023567;28;20207;-75
2023/10/19 08:49:16;;;;;;;10.43;9.52;;;11.80;99.90;;;;;;5023400;28;20702;-74
2023/10/19 08:51:45;;;;;;;10.02;9.02;;;11.70;99.90;;;;;;5004507;28;20650;-75
2023/10/19 08:54:13;;;;;;;10.25;9.30;;;11.70;99.90;;;;;;5023494;28;20220;-73
2023/10/19 08:56:41;;;;;;;11.98;10.52;;;11.70;99.90;;;;;;5019931;28;20833;-74
2023/10/19 08:59:10;;;;;;;9.55;8.65;;;11.80;99.90;;;;;;5021711;28;20227;-73
2023/10/19 09:01:40;;;;;;;10.88;9.93;;;11.80;99.90;;;;;;5024193;28;20238;-74
2023/10/19 09:04:08;;;;;;;10.50;9.45;;;11.90;99.90;;;;;;5025509;28;20214;-75
2023/10/19 09:06:41;;;;;;;9.93;9.02;;;11.90;99.90;;;;;;5019403;28;20203;-74
2023/10/19 09:09:16;;;;;;;10.80;9.73;;;11.90;99.90;;;;;;5019681;28;20237;-74
2023/10/19 09:11:43;;;;;;;11.35;10.35;;;12.00;99.90;;;;;;5019809;28;20277;-75
2023/10/19 09:14:12;;;;;;;10.82;9.55;;;12.00;99.90;;;;;;5019768;28;20227;-75
2023/10/19 09:16:56;;;;;;;10.68;9.57;;;11.90;99.90;;;;;;5021551;28;20691;-73
2023/10/19 09:19:37;;;;;;;10.50;9.50;;;11.90;99.90;;;;;;5018178;28;20196;-74
2023/10/19 09:22:07;;;;;;;10.50;9.50;;;11.90;99.90;;;;;;5017103;28;20253;-75
2023/10/19 09:24:35;;;;;;;10.40;9.40;;;11.90;99.90;;;;;;5014235;28;20204;-74
2023/10/19 09:27:03;;;;;;;10.30;9.30;;;11.90;99.90;;;;;;5035083;28;20215;-75
2023/10/19 09:29:31;;;;;;;10.35;9.45;;;11.90;99.90;;;;;;5020385;28;20208;-75
2023/10/19 09:32:03;;;;;;;10.27;9.27;;;11.90;99.90;;;;;;5019035;28;20983;-74
2023/10/19 09:34:32;;;;;;;13.00;10.38;;;12.00;99.90;;;;;;5019597;28;20296;-74
2023/10/19 09:37:01;;;;;;;11.07;10.07;;;12.00;99.90;;;;;;5023045;28;20677;-74
2023/10/19 09:39:34;;;;;;;10.50;9.27;;;12.00;99.90;;;;;;5022352;28;20809;-75
2023/10/19 09:42:05;;;;;;;9.43;8.48;;;12.00;99.90;;;;;;5020125;28;20234;-75
2023/10/19 09:44:39;;;;;;;10.88;9.77;;;12.00;99.90;;;;;;5016670;28;20196;-74
2023/10/19 09:47:12;;;;;;;10.52;9.60;;;11.80;99.90;;;;;;5020611;28;20271;-74
2023/10/19 09:49:40;;;;;;;13.65;11.95;;;11.80;99.90;;;;;;5021866;28;20204;-74
2023/10/19 09:52:09;;;;;;;13.52;12.15;;;11.70;99.90;;;;;;5017908;28;20206;-74
2023/10/19 09:54:48;;;;;;;14.15;12.63;;;11.70;99.90;;;;;;4997747;28;20218;-74
2023/10/19 09:57:20;;;;;;;13.32;12.05;;;11.60;99.90;;;;;;5016994;28;20228;-74
2023/10/19 09:59:52;;;;;;;11.55;10.55;;;11.50;99.90;;;;;;5017376;28;20262;-74
2023/10/19 10:02:22;;;;;;;10.38;9.38;;;11.50;99.90;;;;;;5017406;28;20245;-75
2023/10/19 10:04:49;;;;;;;12.75;11.10;;;11.50;99.90;;;;;;5018224;28;20764;-74
2023/10/19 10:07:17;;;;;;;14.93;12.02;;;11.50;99.90;;;;;;5017192;28;20223;-74
2023/10/19 10:09:45;;;;;;;14.02;12.65;;;11.60;99.90;;;;;;5018354;28;20201;-75
2023/10/19 10:12:23;;;;;;;12.88;11.60;;;11.50;99.90;;;;;;5015815;28;20216;-74
2023/10/19 10:14:59;;;;;;;12.88;11.52;;;11.30;99.90;;;;;;5018856;28;20239;-74
2023/10/19 10:17:28;;;;;;;12.40;11.25;;;11.20;99.90;;;;;;5023379;28;20688;-73
2023/10/19 10:19:59;;;;;;;11.10;10.10;;;11.30;99.90;;;;;;5025660;28;20249;-74
2023/10/19 10:22:27;;;;;;;11.07;10.05;;;11.30;99.90;;;;;;5023339;28;20811;-75
2023/10/19 10:24:57;;;;;;;9.75;8.95;;;11.40;99.90;;;;;;5028730;28;20195;-75
2023/10/19 10:27:25;;;;;;;11.35;10.35;;;11.50;99.90;;;;;;5015212;28;20233;-75
2023/10/19 10:29:56;;;;;;;11.02;10.00;;;11.60;99.90;;;;;;5016185;28;20293;-75
2023/10/19 10:32:47;;;;;;;11.38;10.23;;;11.70;99.90;;;;;;5022680;28;20199;-75
2023/10/19 10:35:44;;;;;;;10.68;9.73;;;11.70;99.90;;;;;;5018844;28;20717;-75
2023/10/19 10:38:13;;;;;;;10.43;9.45;;;11.60;99.90;;;;;;4998101;28;20223;-75
2023/10/19 10:40:44;;;;;;;9.65;8.85;;;11.60;99.90;;;;;;5018302;28;20200;-75
2023/10/19 10:43:11;;;;;;;10.63;9.63;;;11.50;99.90;;;;;;5029562;28;20199;-74
2023/10/19 10:45:38;;;;;;;10.05;9.05;;;11.50;99.90;;;;;;5018976;28;20198;-74
2023/10/19 10:48:13;;;;;;;10.25;8.65;;;11.60;99.90;;;;;;5022202;28;20219;-74
2023/10/19 10:50:41;;;;;;;9.60;8.70;;;11.60;99.90;;;;;;5024985;28;20249;-73
2023/10/19 10:53:08;;;;;;;9.38;8.52;;;11.70;99.90;;;;;;5005561;28;20206;-74
2023/10/19 10:55:35;;;;;;;8.77;8.10;;;11.80;99.90;;;;;;5023245;28;20594;-74
2023/10/19 10:58:02;;;;;;;11.48;10.35;;;11.90;99.90;;;;;;5025695;28;20220;-73
2023/10/19 11:00:32;;;;;;;12.75;11.40;;;12.00;99.90;;;;;;5022375;28;20986;-73
2023/10/19 11:03:06;;;;;;;12.75;11.25;;;12.40;99.90;;;;;;5020205;28;20295;-74
2023/10/19 11:05:36;;;;;;;11.85;10.25;;;12.80;99.90;;;;;;5025351;28;20721;-73
2023/10/19 11:08:13;;;;;;;10.50;9.50;;;13.00;99.90;;;;;;5024148;28;20219;-72
2023/10/19 11:10:42;;;;;;;9.88;8.98;;;13.30;99.90;;;;;;5022942;28;20393;-73
2023/10/19 11:13:11;;;;;;;10.00;9.02;;;13.50;99.90;;;;;;5027821;28;20775;-72
2023/10/19 11:15:48;;;;;;;9.98;8.98;;;13.60;99.90;;;;;;5017732;28;20224;-73
2023/10/19 11:18:29;;;;;;;9.48;8.50;;;13.60;99.90;;;;;;5025425;28;20882;-73
2023/10/19 11:20:59;;;;;;;9.25;8.38;;;13.70;99.90;;;;;;5021743;28;20257;-73
2023/10/19 11:23:39;;;;;;;9.10;8.30;;;13.70;99.90;;;;;;5023039;28;20235;-73
2023/10/19 11:26:06;;;;;;;10.82;9.75;;;13.80;99.90;;;;;;5029178;28;21352;-72
2023/10/19 11:28:34;;;;;;;8.90;7.97;;;13.90;99.90;;;;;;5019536;28;20227;-73
2023/10/19 11:31:18;;;;;;;10.23;9.18;;;14.00;99.90;;;;;;5024154;28;20199;-74
2023/10/19 11:33:48;;;;;;;8.85;8.05;;;13.90;99.90;;;;;;5026526;28;20274;-72
2023/10/19 11:36:17;;;;;;;8.63;7.82;;;13.90;99.90;;;;;;5025863;28;20223;-74
2023/10/19 11:38:45;;;;;;;10.23;9.15;;;14.00;99.90;;;;;;5021186;28;20701;-73
2023/10/19 11:41:13;;;;;;;10.93;9.80;;;13.90;99.90;;;;;;5019495;28;20905;-72
2023/10/19 11:43:40;;;;;;;9.85;8.85;;;13.90;99.90;;;;;;5022876;28;20855;-73
2023/10/19 11:46:08;;;;;;;9.77;8.88;;;13.70;99.90;;;;;;5021249;28;20221;-73
2023/10/19 11:48:36;;;;;;;10.55;9.65;;;13.50;99.90;;;;;;5022057;28;20645;-72
2023/10/19 11:51:04;;;;;;;11.70;10.60;;;13.30;99.90;;;;;;5030579;28;20281;-73
2023/10/19 11:53:34;;;;;;;12.23;11.18;;;13.20;99.90;;;;;;5026909;28;20680;-72
2023/10/19 11:56:05;;;;;;;13.57;11.90;;;13.20;99.90;;;;;;5026989;28;20429;-72
2023/10/19 11:58:34;;;;;;;10.98;9.98;;;13.10;99.90;;;;;;5025690;28;20227;-72
2023/10/19 12:01:02;;;;;;;11.60;10.40;;;12.90;99.90;;;;;;5024036;28;20299;-73
2023/10/19 12:03:30;;;;;;;10.93;9.85;;;12.80;99.90;;;;;;5026902;28;20574;-73
2023/10/19 12:05:57;;;;;;;10.10;9.27;;;12.70;99.90;;;;;;5028219;28;20198;-71
2023/10/19 12:08:25;;;;;;;11.50;10.38;;;12.60;99.90;;;;;;5019690;28;20831;-72
2023/10/19 12:10:53;;;;;;;9.85;8.95;;;12.60;99.90;;;;;;5023213;28;20822;-72
2023/10/19 12:13:20;;;;;;;9.93;9.02;;;12.60;99.90;;;;;;5025767;28;20199;-72
2023/10/19 12:15:53;;;;;;;9.80;8.90;;;12.60;99.90;;;;;;5026992;28;20247;-72
2023/10/19 12:18:21;;;;;;;9.80;8.90;;;12.50;99.90;;;;;;5020119;28;20393;-72
2023/10/19 12:20:48;;;;;;;10.93;9.93;;;12.40;99.90;;;;;;5021625;28;20218;-71
2023/10/19 12:23:16;;;;;;;12.80;11.48;;;12.30;99.90;;;;;;5021696;28;20246;-71
2023/10/19 12:25:45;;;;;;;10.55;9.55;;;12.30;99.90;;;;;;5018199;28;20232;-72
2023/10/19 12:28:14;;;;;;;11.57;10.48;;;12.20;99.90;;;;;;5019588;28;20251;-72
2023/10/19 12:30:42;;;;;;;16.15;14.55;;;12.10;99.90;;;;;;5025412;28;20277;-72
2023/10/19 12:33:12;;;;;;;13.00;11.73;;;12.00;99.90;;;;;;5026760;28;20214;-72
2023/10/19 12:35:49;;;;;;;11.35;10.25;;;12.00;99.90;;;;;;5021165;28;20212;-73
2023/10/19 12:38:17;;;;;;;11.20;10.18;;;11.90;99.90;;;;;;5024507;28;20314;-72
2023/10/19 12:40:46;;;;;;;10.68;9.50;;;11.90;99.90;;;;;;5023628;28;20210;-71
2023/10/19 12:43:15;;;;;;;10.77;9.70;;;11.90;99.90;;;;;;5028285;28;20877;-71
2023/10/19 12:45:47;;;;;;;9.45;8.55;;;12.00;99.90;;;;;;5025262;28;20202;-72
2023/10/19 12:48:14;;;;;;;11.15;10.15;;;12.00;99.90;;;;;;5018011;28;20225;-72
2023/10/19 12:50:42;;;;;;;12.52;11.32;;;12.10;99.90;;;;;;5023764;28;20204;-72
2023/10/19 12:53:09;;;;;;;10.95;9.95;;;12.10;99.90;;;;;;5022846;28;20198;-72
2023/10/19 12:55:38;;;;;;;10.57;9.65;;;12.10;99.90;;;;;;5023234;28;20220;-72